DLH4MW EDDF-EDDM
Flight info
| Callsign | DLH4MW |
|---|---|
| Flight time | 0h 32m |
| Altitude | 23000 |
| Route | CINDY8S/18 CINDY Z74 HAREM T104 ROKIL ROKIL1A |
| Aircraft | B789/H-SADFGHIJ1J2J3J4J5LOP1P2RWXYZ/LB1D1 |
Departure
| Time | 2026-05-04 14:41 |
|---|---|
| Airport | Frankfurt Main Airport (EDDF) |
Arrival
| Time | 2026-05-04 15:13 |
|---|---|
| Airport | Munich Airport (EDDM) |
| Time | Latitude | Longitude | Altitude | Speed | Heading |
|---|---|---|---|---|---|
| 2026-05-04 14:15 | 50.04800 | 8.56923 | 361 ft | 0 kts | 294° |
| 2026-05-04 14:28 | 50.04798 | 8.56929 | 364 ft | 3 kts | 294° |
| 2026-05-04 14:28 | 50.04788 | 8.56967 | 363 ft | 3 kts | 295° |
| 2026-05-04 14:29 | 50.04789 | 8.57029 | 366 ft | 4 kts | 212° |
| 2026-05-04 14:29 | 50.04797 | 8.57037 | 361 ft | 5 kts | 204° |
| 2026-05-04 14:30 | 50.04776 | 8.57021 | 365 ft | 4 kts | 204° |
| 2026-05-04 14:30 | 50.04751 | 8.57004 | 364 ft | 4 kts | 204° |
| 2026-05-04 14:30 | 50.04702 | 8.56968 | 366 ft | 4 kts | 205° |
| 2026-05-04 14:31 | 50.04678 | 8.56951 | 364 ft | 4 kts | 205° |
| 2026-05-04 14:31 | 50.04661 | 8.56938 | 362 ft | 0 kts | 205° |
| 2026-05-04 14:33 | 50.04658 | 8.56936 | 362 ft | 2 kts | 205° |
| 2026-05-04 14:33 | 50.04629 | 8.56921 | 362 ft | 6 kts | 193° |
| 2026-05-04 14:33 | 50.04577 | 8.56900 | 369 ft | 8 kts | 194° |
| 2026-05-04 14:33 | 50.04529 | 8.56882 | 364 ft | 8 kts | 194° |
| 2026-05-04 14:34 | 50.04473 | 8.56853 | 370 ft | 10 kts | 214° |
| 2026-05-04 14:34 | 50.04433 | 8.56750 | 364 ft | 14 kts | 249° |
| 2026-05-04 14:34 | 50.04395 | 8.56591 | 368 ft | 18 kts | 249° |
| 2026-05-04 14:34 | 50.04346 | 8.56387 | 363 ft | 21 kts | 250° |
| 2026-05-04 14:35 | 50.04293 | 8.56165 | 363 ft | 23 kts | 249° |
| 2026-05-04 14:35 | 50.04236 | 8.55928 | 361 ft | 24 kts | 249° |
| 2026-05-04 14:35 | 50.04176 | 8.55676 | 365 ft | 25 kts | 249° |
| 2026-05-04 14:35 | 50.04114 | 8.55413 | 357 ft | 26 kts | 250° |
| 2026-05-04 14:36 | 50.04051 | 8.55151 | 365 ft | 26 kts | 249° |
| 2026-05-04 14:36 | 50.03987 | 8.54884 | 365 ft | 27 kts | 249° |
| 2026-05-04 14:36 | 50.03919 | 8.54601 | 359 ft | 29 kts | 249° |
| 2026-05-04 14:36 | 50.03835 | 8.54314 | 361 ft | 30 kts | 235° |
| 2026-05-04 14:37 | 50.03753 | 8.54024 | 356 ft | 30 kts | 250° |
| 2026-05-04 14:37 | 50.03678 | 8.53714 | 350 ft | 31 kts | 249° |
| 2026-05-04 14:37 | 50.03600 | 8.53402 | 356 ft | 31 kts | 250° |
| 2026-05-04 14:37 | 50.03541 | 8.53153 | 348 ft | 20 kts | 250° |
| 2026-05-04 14:38 | 50.03498 | 8.52977 | 351 ft | 15 kts | 249° |
| 2026-05-04 14:38 | 50.03459 | 8.52829 | 351 ft | 15 kts | 246° |
| 2026-05-04 14:38 | 50.03435 | 8.52738 | 349 ft | 0 kts | 249° |
| 2026-05-04 14:38 | 50.03435 | 8.52737 | 341 ft | 0 kts | 249° |
| 2026-05-04 14:39 | 50.03432 | 8.52723 | 345 ft | 4 kts | 249° |
| 2026-05-04 14:39 | 50.03412 | 8.52643 | 339 ft | 11 kts | 249° |
| 2026-05-04 14:39 | 50.03373 | 8.52594 | 341 ft | 3 kts | 185° |
| 2026-05-04 14:40 | 50.03361 | 8.52594 | 336 ft | 4 kts | 180° |
| 2026-05-04 14:40 | 50.03255 | 8.52594 | 336 ft | 38 kts | 180° |
| 2026-05-04 14:40 | 50.02740 | 8.52596 | 341 ft | 109 kts | 180° |
| 2026-05-04 14:40 | 50.01765 | 8.52601 | 387 ft | 166 kts | 178° |
| 2026-05-04 14:41 | 50.00612 | 8.52647 | 1215 ft | 166 kts | 177° |
| 2026-05-04 14:41 | 49.99438 | 8.52647 | 2160 ft | 170 kts | 181° |
| 2026-05-04 14:41 | 49.96712 | 8.53123 | 3644 ft | 228 kts | 149° |
| 2026-05-04 14:42 | 49.94826 | 8.57296 | 4022 ft | 240 kts | 116° |
| 2026-05-04 14:42 | 49.94175 | 8.59631 | 4014 ft | 239 kts | 109° |
| 2026-05-04 14:42 | 49.93968 | 8.62230 | 3998 ft | 254 kts | 93° |
| 2026-05-04 14:43 | 49.93892 | 8.65150 | 5012 ft | 262 kts | 93° |
| 2026-05-04 14:43 | 49.93722 | 8.67997 | 6480 ft | 271 kts | 106° |
| 2026-05-04 14:43 | 49.92788 | 8.70500 | 7516 ft | 276 kts | 134° |
| 2026-05-04 14:43 | 49.91255 | 8.72313 | 8498 ft | 281 kts | 146° |
| 2026-05-04 14:44 | 49.89626 | 8.74094 | 9547 ft | 285 kts | 146° |
| 2026-05-04 14:44 | 49.87969 | 8.75780 | 10385 ft | 297 kts | 148° |
| 2026-05-04 14:44 | 49.86132 | 8.77544 | 10732 ft | 324 kts | 149° |
| 2026-05-04 14:44 | 49.84125 | 8.79447 | 10979 ft | 352 kts | 149° |
| 2026-05-04 14:45 | 49.81981 | 8.81478 | 11585 ft | 364 kts | 149° |
| 2026-05-04 14:45 | 49.79842 | 8.83588 | 12467 ft | 367 kts | 143° |
| 2026-05-04 14:45 | 49.78100 | 8.86531 | 13227 ft | 374 kts | 127° |
| 2026-05-04 14:45 | 49.76703 | 8.89954 | 14003 ft | 379 kts | 122° |
| 2026-05-04 14:46 | 49.75355 | 8.93483 | 14701 ft | 383 kts | 123° |
| 2026-05-04 14:46 | 49.73857 | 8.96917 | 15394 ft | 386 kts | 128° |
| 2026-05-04 14:46 | 49.72229 | 9.00247 | 16085 ft | 390 kts | 128° |
| 2026-05-04 14:46 | 49.70621 | 9.03653 | 16775 ft | 394 kts | 126° |
| 2026-05-04 14:47 | 49.69067 | 9.07132 | 17652 ft | 391 kts | 126° |
| 2026-05-04 14:47 | 49.67513 | 9.10567 | 18450 ft | 390 kts | 127° |
| 2026-05-04 14:47 | 49.65933 | 9.13970 | 19213 ft | 389 kts | 127° |
| 2026-05-04 14:47 | 49.64358 | 9.17357 | 19939 ft | 389 kts | 127° |
| 2026-05-04 14:48 | 49.62792 | 9.20759 | 20676 ft | 388 kts | 127° |
| 2026-05-04 14:48 | 49.61233 | 9.24149 | 21373 ft | 387 kts | 127° |
| 2026-05-04 14:48 | 49.59674 | 9.27517 | 22080 ft | 385 kts | 127° |
| 2026-05-04 14:48 | 49.58117 | 9.30873 | 22725 ft | 385 kts | 127° |
| 2026-05-04 14:49 | 49.56542 | 9.34266 | 22968 ft | 393 kts | 127° |
| 2026-05-04 14:49 | 49.54956 | 9.37685 | 22967 ft | 388 kts | 127° |
| 2026-05-04 14:49 | 49.53397 | 9.41043 | 22975 ft | 384 kts | 127° |
| 2026-05-04 14:49 | 49.51843 | 9.44378 | 22970 ft | 383 kts | 127° |
| 2026-05-04 14:50 | 49.50289 | 9.47708 | 22976 ft | 383 kts | 127° |
| 2026-05-04 14:50 | 49.48733 | 9.51042 | 22973 ft | 384 kts | 127° |
| 2026-05-04 14:50 | 49.47176 | 9.54376 | 22973 ft | 384 kts | 127° |
| 2026-05-04 14:50 | 49.45636 | 9.57668 | 22984 ft | 384 kts | 127° |
| 2026-05-04 14:51 | 49.44054 | 9.61045 | 22983 ft | 385 kts | 127° |
| 2026-05-04 14:51 | 49.42508 | 9.64342 | 22982 ft | 385 kts | 127° |
| 2026-05-04 14:51 | 49.40947 | 9.67666 | 22984 ft | 384 kts | 127° |
| 2026-05-04 14:51 | 49.39382 | 9.70994 | 22982 ft | 384 kts | 127° |
| 2026-05-04 14:52 | 49.37815 | 9.74321 | 22982 ft | 384 kts | 127° |
| 2026-05-04 14:52 | 49.36251 | 9.77641 | 22983 ft | 384 kts | 127° |
| 2026-05-04 14:52 | 49.34683 | 9.80963 | 22984 ft | 384 kts | 127° |
| 2026-05-04 14:52 | 49.33115 | 9.84282 | 22985 ft | 384 kts | 128° |
| 2026-05-04 14:53 | 49.31551 | 9.87587 | 22989 ft | 384 kts | 127° |
| 2026-05-04 14:53 | 49.29984 | 9.90904 | 22991 ft | 385 kts | 127° |
| 2026-05-04 14:53 | 49.28411 | 9.94222 | 22989 ft | 384 kts | 128° |
| 2026-05-04 14:53 | 49.26840 | 9.97519 | 22988 ft | 383 kts | 128° |
| 2026-05-04 14:54 | 49.25268 | 10.00818 | 22986 ft | 384 kts | 128° |
| 2026-05-04 14:54 | 49.23696 | 10.04126 | 22985 ft | 384 kts | 128° |
| 2026-05-04 14:54 | 49.22145 | 10.07383 | 22985 ft | 383 kts | 128° |
| 2026-05-04 14:54 | 49.20571 | 10.10679 | 22985 ft | 383 kts | 128° |
| 2026-05-04 14:55 | 49.18999 | 10.13967 | 22984 ft | 383 kts | 128° |
| 2026-05-04 14:55 | 49.17427 | 10.17253 | 22983 ft | 383 kts | 128° |
| 2026-05-04 14:55 | 49.15856 | 10.20533 | 22983 ft | 383 kts | 128° |
| 2026-05-04 14:55 | 49.14268 | 10.23795 | 22984 ft | 382 kts | 131° |
| 2026-05-04 14:56 | 49.12445 | 10.26734 | 23000 ft | 382 kts | 135° |
| 2026-05-04 14:56 | 49.10619 | 10.29703 | 23001 ft | 383 kts | 134° |
| 2026-05-04 14:56 | 49.08800 | 10.32674 | 22999 ft | 383 kts | 135° |
| 2026-05-04 14:56 | 49.06963 | 10.35623 | 22999 ft | 383 kts | 135° |
| 2026-05-04 14:57 | 49.05122 | 10.38561 | 23000 ft | 383 kts | 135° |
| 2026-05-04 14:57 | 49.03290 | 10.41500 | 22999 ft | 383 kts | 135° |
| 2026-05-04 14:57 | 49.01459 | 10.44443 | 22998 ft | 382 kts | 135° |
| 2026-05-04 14:57 | 48.99628 | 10.47373 | 23000 ft | 382 kts | 135° |
| 2026-05-04 14:58 | 48.97808 | 10.50274 | 22886 ft | 372 kts | 135° |
| 2026-05-04 14:58 | 48.96020 | 10.53119 | 22476 ft | 375 kts | 135° |
| 2026-05-04 14:58 | 48.94200 | 10.56012 | 21942 ft | 380 kts | 135° |
| 2026-05-04 14:58 | 48.92395 | 10.58888 | 21385 ft | 381 kts | 135° |
| 2026-05-04 14:59 | 48.90569 | 10.61795 | 20805 ft | 380 kts | 135° |
| 2026-05-04 14:59 | 48.88721 | 10.64729 | 20233 ft | 379 kts | 135° |
| 2026-05-04 14:59 | 48.85092 | 10.70480 | 19013 ft | 380 kts | 135° |
| 2026-05-04 15:00 | 48.83259 | 10.73381 | 18372 ft | 381 kts | 135° |
| 2026-05-04 15:00 | 48.81425 | 10.76280 | 17720 ft | 381 kts | 135° |
| 2026-05-04 15:00 | 48.79520 | 10.79066 | 17040 ft | 380 kts | 140° |
| 2026-05-04 15:01 | 48.75387 | 10.84125 | 15628 ft | 383 kts | 143° |
| 2026-05-04 15:01 | 48.73270 | 10.86593 | 14866 ft | 384 kts | 143° |
| 2026-05-04 15:01 | 48.71143 | 10.89049 | 14080 ft | 385 kts | 144° |
| 2026-05-04 15:01 | 48.69012 | 10.91500 | 13392 ft | 383 kts | 144° |
| 2026-05-04 15:02 | 48.66898 | 10.93926 | 13015 ft | 379 kts | 144° |
| 2026-05-04 15:02 | 48.64795 | 10.96337 | 12976 ft | 381 kts | 144° |
| 2026-05-04 15:02 | 48.62677 | 10.98761 | 12984 ft | 383 kts | 144° |
| 2026-05-04 15:02 | 48.60560 | 11.01184 | 12997 ft | 378 kts | 144° |
| 2026-05-04 15:03 | 48.58559 | 11.03476 | 12461 ft | 348 kts | 144° |
| 2026-05-04 15:03 | 48.56577 | 11.05743 | 11461 ft | 356 kts | 144° |
| 2026-05-04 15:03 | 48.54625 | 11.07973 | 10878 ft | 347 kts | 143° |
| 2026-05-04 15:03 | 48.52721 | 11.10132 | 10361 ft | 336 kts | 144° |
| 2026-05-04 15:04 | 48.50874 | 11.12207 | 9847 ft | 326 kts | 144° |
| 2026-05-04 15:04 | 48.49123 | 11.14161 | 9337 ft | 308 kts | 144° |
| 2026-05-04 15:04 | 48.47425 | 11.16035 | 8802 ft | 292 kts | 144° |
| 2026-05-04 15:04 | 48.45782 | 11.17833 | 8288 ft | 291 kts | 144° |
| 2026-05-04 15:05 | 48.44156 | 11.19600 | 7758 ft | 286 kts | 144° |
| 2026-05-04 15:05 | 48.42556 | 11.21334 | 7255 ft | 281 kts | 144° |
| 2026-05-04 15:05 | 48.40987 | 11.23056 | 6734 ft | 277 kts | 140° |
| 2026-05-04 15:05 | 48.39814 | 11.25307 | 6231 ft | 274 kts | 119° |
| 2026-05-04 15:06 | 48.38955 | 11.27850 | 5887 ft | 271 kts | 115° |
| 2026-05-04 15:06 | 48.38181 | 11.30374 | 5572 ft | 260 kts | 114° |
| 2026-05-04 15:06 | 48.37456 | 11.32785 | 5267 ft | 252 kts | 114° |
| 2026-05-04 15:07 | 48.36062 | 11.37433 | 4724 ft | 239 kts | 114° |
| 2026-05-04 15:07 | 48.35381 | 11.39703 | 4460 ft | 237 kts | 114° |
| 2026-05-04 15:07 | 48.34705 | 11.41953 | 4242 ft | 235 kts | 114° |
| 2026-05-04 15:07 | 48.34027 | 11.44198 | 4029 ft | 233 kts | 114° |
| 2026-05-04 15:08 | 48.33595 | 11.45634 | 4003 ft | 221 kts | 114° |
| 2026-05-04 15:08 | 48.32965 | 11.47717 | 3997 ft | 218 kts | 114° |
| 2026-05-04 15:08 | 48.32346 | 11.49778 | 4011 ft | 216 kts | 113° |
| 2026-05-04 15:08 | 48.32185 | 11.51972 | 3979 ft | 215 kts | 78° |
| 2026-05-04 15:09 | 48.32473 | 11.54133 | 3980 ft | 204 kts | 85° |
| 2026-05-04 15:09 | 48.32608 | 11.56216 | 3936 ft | 200 kts | 83° |
| 2026-05-04 15:09 | 48.32767 | 11.58281 | 3706 ft | 197 kts | 83° |
| 2026-05-04 15:10 | 48.33057 | 11.62057 | 3202 ft | 162 kts | 83° |
| 2026-05-04 15:10 | 48.33180 | 11.63651 | 3000 ft | 149 kts | 83° |
| 2026-05-04 15:10 | 48.33420 | 11.66704 | 2630 ft | 146 kts | 82° |
| 2026-05-04 15:11 | 48.33535 | 11.68211 | 2429 ft | 145 kts | 82° |
| 2026-05-04 15:11 | 48.33648 | 11.69715 | 2237 ft | 144 kts | 83° |
| 2026-05-04 15:11 | 48.33760 | 11.71217 | 2049 ft | 145 kts | 83° |
| 2026-05-04 15:11 | 48.33875 | 11.72719 | 1834 ft | 144 kts | 82° |
| 2026-05-04 15:12 | 48.33991 | 11.74195 | 1670 ft | 144 kts | 82° |
| 2026-05-04 15:12 | 48.34111 | 11.75687 | 1500 ft | 139 kts | 83° |
| 2026-05-04 15:12 | 48.34206 | 11.76888 | 1484 ft | 92 kts | 84° |
| 2026-05-04 15:12 | 48.34262 | 11.77647 | 1491 ft | 60 kts | 83° |
| 2026-05-04 15:13 | 48.34309 | 11.78227 | 1478 ft | 52 kts | 83° |
| 2026-05-04 15:13 | 48.34351 | 11.78737 | 1482 ft | 46 kts | 81° |
| 2026-05-04 15:13 | 48.34436 | 11.79170 | 1491 ft | 40 kts | 55° |
| 2026-05-04 15:13 | 48.34575 | 11.79442 | 1482 ft | 21 kts | 53° |
| 2026-05-04 15:14 | 48.34653 | 11.79553 | 1491 ft | 14 kts | 13° |
| 2026-05-04 15:14 | 48.34749 | 11.79551 | 1477 ft | 14 kts | 0° |
| 2026-05-04 15:14 | 48.34851 | 11.79558 | 1491 ft | 14 kts | 353° |
| 2026-05-04 15:14 | 48.34953 | 11.79541 | 1491 ft | 16 kts | 353° |
| 2026-05-04 15:15 | 48.35066 | 11.79521 | 1491 ft | 16 kts | 353° |
| 2026-05-04 15:15 | 48.35161 | 11.79503 | 1491 ft | 7 kts | 349° |
| 2026-05-04 15:15 | 48.35174 | 11.79491 | 1485 ft | 0 kts | 308° |
| 2026-05-04 15:16 | 48.35170 | 11.79392 | 1475 ft | 9 kts | 264° |
| 2026-05-04 15:16 | 48.35168 | 11.79358 | 1488 ft | 1 kts | 263° |
| 2026-05-04 15:16 | 48.35168 | 11.79357 | 1491 ft | 0 kts | 263° |